Time;durP1;ratioP1;P1;durP2;ratioP2;P2;SDS_P1;SDS_P2;PMS_P1;PMS_P2;Temp;Humidity;BMP_temperature;BMP_pressure;BME280_temperature;BME280_humidity;BME280_pressure;Samples;Min_cycle;Max_cycle;Signal;HPM_P1;HPM_P2
2022/04/24 00:04:28;;;;;;;2.40;2.20;;;;;;;;;;21049576;28;20032;-90
2022/04/24 00:14:36;;;;;;;2.22;2.03;;;;;;;;;;21056818;28;20677;-90
2022/04/24 00:24:47;;;;;;;2.65;2.30;;;;;;;;;;21041413;28;20082;-93
2022/04/24 00:35:02;;;;;;;3.05;2.60;;;;;;;;;;21059916;28;21613;-90
2022/04/24 00:45:28;;;;;;;2.35;2.15;;;;;;;;;;21026337;28;20060;-90
2022/04/24 00:55:39;;;;;;;2.10;2.00;;;;;;;;;;21031810;28;20102;-90
2022/04/24 01:05:49;;;;;;;2.63;2.10;;;;;;;;;;20942809;28;20044;-91
2022/04/24 01:15:59;;;;;;;2.35;2.15;;;;;;;;;;20954342;28;20040;-91
2022/04/24 01:26:13;;;;;;;2.33;2.13;;;;;;;;;;21005999;28;20077;-91
2022/04/24 01:36:34;;;;;;;3.47;2.17;;;;;;;;;;21047847;28;20040;-93
2022/04/24 01:47:07;;;;;;;2.70;2.10;;;;;;;;;;21058516;28;20056;-92
2022/04/24 01:57:32;;;;;;;2.63;2.05;;;;;;;;;;21040835;28;20517;-92
2022/04/24 02:07:42;;;;;;;2.60;2.40;;;;;;;;;;21578120;22;20067;-86
2022/04/24 02:17:44;;;;;;;2.42;2.10;;;;;;;;;;21128504;28;20523;-85
2022/04/24 02:27:46;;;;;;;2.47;2.20;;;;;;;;;;21086212;28;20584;-85
2022/04/24 02:37:48;;;;;;;3.22;2.28;;;;;;;;;;21114766;28;20126;-84
2022/04/24 02:47:51;;;;;;;2.10;2.00;;;;;;;;;;21070702;28;20050;-84
2022/04/24 02:57:54;;;;;;;2.40;2.20;;;;;;;;;;21082658;28;20048;-86
2022/04/24 03:07:57;;;;;;;2.42;2.10;;;;;;;;;;21092571;28;20556;-84
2022/04/24 03:17:58;;;;;;;2.30;2.10;;;;;;;;;;21108213;28;20048;-84
2022/04/24 03:28:00;;;;;;;2.20;2.00;;;;;;;;;;21089478;28;20048;-87
2022/04/24 03:38:03;;;;;;;2.63;2.35;;;;;;;;;;21105367;28;20070;-85
2022/04/24 03:48:05;;;;;;;2.60;2.40;;;;;;;;;;21114753;28;20050;-85
2022/04/24 03:58:07;;;;;;;2.70;2.28;;;;;;;;;;21112559;28;20104;-84
2022/04/24 04:08:09;;;;;;;2.60;2.40;;;;;;;;;;21088817;28;20048;-84
2022/04/24 04:18:11;;;;;;;2.17;2.00;;;;;;;;;;21124853;28;20508;-85
2022/04/24 04:28:14;;;;;;;2.85;2.20;;;;;;;;;;21085470;28;20122;-85
2022/04/24 04:38:16;;;;;;;2.67;2.30;;;;;;;;;;21116036;28;20047;-85
2022/04/24 04:48:18;;;;;;;2.95;2.20;;;;;;;;;;21098208;28;20077;-84
2022/04/24 04:58:21;;;;;;;2.28;2.08;;;;;;;;;;21095028;28;20486;-84
2022/04/24 05:08:23;;;;;;;2.28;2.08;;;;;;;;;;21128238;27;20059;-85
2022/04/24 05:18:25;;;;;;;2.72;2.35;;;;;;;;;;21090477;28;20043;-83
2022/04/24 05:28:27;;;;;;;2.58;2.30;;;;;;;;;;21083292;28;20056;-84
2022/04/24 05:38:29;;;;;;;2.60;2.40;;;;;;;;;;21048873;28;20078;-82
2022/04/24 05:48:31;;;;;;;3.38;2.33;;;;;;;;;;21047750;28;20051;-82
2022/04/24 05:58:33;;;;;;;2.42;2.10;;;;;;;;;;21081855;28;20046;-84
2022/04/24 06:08:35;;;;;;;1.90;1.75;;;;;;;;;;21062005;28;20054;-82
2022/04/24 06:18:36;;;;;;;1.63;1.52;;;;;;;;;;21079807;28;20066;-81
2022/04/24 06:28:38;;;;;;;2.33;1.80;;;;;;;;;;21078610;28;20044;-82
2022/04/24 06:38:40;;;;;;;2.35;2.05;;;;;;;;;;21085027;28;20044;-83
2022/04/24 06:48:41;;;;;;;2.85;2.00;;;;;;;;;;21161727;28;20511;-83
2022/04/24 06:58:43;;;;;;;2.22;1.83;;;;;;;;;;21160932;28;20058;-85
2022/04/24 07:08:48;;;;;;;2.17;1.63;;;;;;;;;;21160165;28;20052;-85
2022/04/24 07:18:49;;;;;;;1.80;1.63;;;;;;;;;;21158674;28;20058;-88
2022/04/24 07:28:51;;;;;;;2.25;1.77;;;;;;;;;;21159269;28;20052;-91
2022/04/24 07:38:53;;;;;;;1.90;1.48;;;;;;;;;;21140866;28;20424;-84
2022/04/24 07:48:55;;;;;;;1.95;1.40;;;;;;;;;;21158509;28;20044;-84
2022/04/24 07:58:56;;;;;;;2.03;1.50;;;;;;;;;;21124978;28;20047;-89
2022/04/24 08:08:58;;;;;;;2.40;1.50;;;;;;;;;;21155895;28;20412;-87
2022/04/24 08:19:01;;;;;;;1.88;1.27;;;;;;;;;;21075022;28;20051;-87
2022/04/24 08:29:02;;;;;;;1.77;1.08;;;;;;;;;;21077620;28;20094;-90
2022/04/24 08:39:04;;;;;;;1.25;1.15;;;;;;;;;;21087983;28;20051;-87
2022/04/24 08:49:08;;;;;;;1.00;0.90;;;;;;;;;;21068797;28;20052;-84
2022/04/24 08:59:10;;;;;;;1.15;1.05;;;;;;;;;;21100930;28;20041;-85
2022/04/24 09:09:12;;;;;;;1.23;1.10;;;;;;;;;;21135435;28;20062;-87
2022/04/24 09:19:16;;;;;;;2.03;1.23;;;;;;;;;;21168993;28;20047;-82
2022/04/24 09:29:18;;;;;;;1.00;0.90;;;;;;;;;;21168326;28;20075;-84
2022/04/24 09:39:27;;;;;;;1.58;1.17;;;;;;;;;;21148264;28;20048;-85
2022/04/24 09:49:31;;;;;;;1.75;1.15;;;;;;;;;;21148846;28;20048;-83
2022/04/24 09:59:34;;;;;;;1.30;1.00;;;;;;;;;;21167077;28;20047;-89
2022/04/24 10:09:42;;;;;;;1.80;1.20;;;;;;;;;;21134869;28;20455;-91
2022/04/24 10:20:23;;;;;;;;;;;;;;;;;;;;;
2022/04/24 10:31:04;;;;;;;1.30;1.20;;;;;;;;;;21164075;28;20134;-90
2022/04/24 10:41:18;;;;;;;1.80;1.00;;;;;;;;;;21145662;28;20067;-90
2022/04/24 10:51:30;;;;;;;1.88;0.93;;;;;;;;;;21161386;28;20040;-91
2022/04/24 11:01:32;;;;;;;1.73;1.10;;;;;;;;;;21065003;28;20052;-91
2022/04/24 11:11:55;;;;;;;1.52;1.08;;;;;;;;;;21074977;28;20052;-90
2022/04/24 11:22:08;;;;;;;1.25;1.15;;;;;;;;;;21057119;28;20082;-90
2022/04/24 11:32:17;;;;;;;1.35;1.17;;;;;;;;;;21075456;28;20076;-89
2022/04/24 11:42:26;;;;;;;2.67;1.00;;;;;;;;;;21042001;28;20076;-94
2022/04/24 11:52:35;;;;;;;2.13;1.10;;;;;;;;;;21056805;28;20556;-91
2022/04/24 12:02:56;;;;;;;2.00;1.00;;;;;;;;;;21068979;28;20059;-91
2022/04/24 12:13:04;;;;;;;1.02;0.88;;;;;;;;;;21054537;28;20044;-88
2022/04/24 12:23:09;;;;;;;1.42;1.10;;;;;;;;;;21108693;28;20057;-87
2022/04/24 12:33:11;;;;;;;1.92;1.05;;;;;;;;;;21155609;28;20083;-87
2022/04/24 12:43:22;;;;;;;1.83;1.30;;;;;;;;;;21103521;28;20122;-89
2022/04/24 12:53:24;;;;;;;1.20;1.10;;;;;;;;;;21154616;28;20043;-88
2022/04/24 13:03:26;;;;;;;0.90;0.90;;;;;;;;;;21120022;28;20370;-88
2022/04/24 13:13:28;;;;;;;1.50;1.10;;;;;;;;;;21122069;28;20054;-85
2022/04/24 13:23:30;;;;;;;1.55;1.20;;;;;;;;;;21150342;28;20079;-87
2022/04/24 13:33:32;;;;;;;2.10;1.20;;;;;;;;;;21151553;28;20057;-86
2022/04/24 13:43:37;;;;;;;1.15;1.10;;;;;;;;;;21149080;28;20047;-88
2022/04/24 13:53:40;;;;;;;2.43;1.30;;;;;;;;;;21166539;28;20146;-89
2022/04/24 14:03:43;;;;;;;2.13;1.30;;;;;;;;;;21148761;28;20078;-87
2022/04/24 14:13:45;;;;;;;1.83;1.10;;;;;;;;;;21130148;28;20048;-87
2022/04/24 14:23:47;;;;;;;2.22;1.40;;;;;;;;;;21128774;28;20051;-86
2022/04/24 14:33:49;;;;;;;1.77;1.17;;;;;;;;;;21163329;28;20497;-87
2022/04/24 14:43:50;;;;;;;1.90;1.50;;;;;;;;;;21146339;28;20046;-89
2022/04/24 15:04:13;;;;;;;2.40;1.20;;;;;;;;;;21145118;28;20059;-87
2022/04/24 15:14:14;;;;;;;1.73;1.30;;;;;;;;;;21141740;28;20505;-87
2022/04/24 15:24:22;;;;;;;2.50;1.60;;;;;;;;;;21141302;28;20044;-87
2022/04/24 15:34:24;;;;;;;1.88;1.45;;;;;;;;;;21142068;28;20048;-87
2022/04/24 15:44:26;;;;;;;1.60;1.50;;;;;;;;;;21139147;28;20051;-89
2022/04/24 15:54:31;;;;;;;1.53;1.30;;;;;;;;;;21140578;28;20071;-87
2022/04/24 16:04:34;;;;;;;1.52;1.30;;;;;;;;;;21138252;28;20059;-88
2022/04/24 16:14:36;;;;;;;1.40;1.13;;;;;;;;;;21138643;28;20164;-88
2022/04/24 16:24:37;;;;;;;3.58;1.52;;;;;;;;;;21135579;28;20044;-88
2022/04/24 16:34:40;;;;;;;1.83;1.40;;;;;;;;;;21154752;28;20086;-88
2022/04/24 16:44:42;;;;;;;1.38;1.20;;;;;;;;;;21137215;28;20443;-86
2022/04/24 17:05:05;;;;;;;1.73;1.30;;;;;;;;;;21155510;28;20082;-89
2022/04/24 17:15:08;;;;;;;1.98;1.23;;;;;;;;;;21134577;28;20048;-88
2022/04/24 17:25:12;;;;;;;1.73;1.40;;;;;;;;;;21151240;28;20043;-87
2022/04/24 17:35:19;;;;;;;2.30;1.50;;;;;;;;;;21117280;28;20445;-84
2022/04/24 17:45:21;;;;;;;1.63;1.40;;;;;;;;;;21149479;28;20042;-85
2022/04/24 17:55:23;;;;;;;2.67;1.40;;;;;;;;;;21166444;28;20063;-87
2022/04/24 18:05:26;;;;;;;1.88;1.40;;;;;;;;;;21129537;28;20101;-86
2022/04/24 18:15:30;;;;;;;2.58;1.63;;;;;;;;;;21146981;28;20059;-85
2022/04/24 18:25:32;;;;;;;1.90;1.65;;;;;;;;;;21164047;28;20606;-84
2022/04/24 18:37:35;;;;;;;1.92;1.45;;;;;;;;;;21128101;28;20074;-85
2022/04/24 18:45:57;;;;;;;1.80;1.42;;;;;;;;;;21147240;28;20512;-85
2022/04/24 18:56:02;;;;;;;2.10;1.60;;;;;;;;;;21126808;28;20059;-88
2022/04/24 19:16:27;;;;;;;2.33;1.70;;;;;;;;;;21160035;28;20051;-85
2022/04/24 19:26:29;;;;;;;3.53;1.52;;;;;;;;;;21141332;28;20524;-86
2022/04/24 19:36:31;;;;;;;3.47;1.80;;;;;;;;;;21140619;28;20055;-86
2022/04/24 19:46:33;;;;;;;4.13;1.77;;;;;;;;;;21158027;28;20044;-88
2022/04/24 19:56:40;;;;;;;3.63;1.80;;;;;;;;;;21140395;28;20036;-86
2022/04/24 20:06:42;;;;;;;2.92;1.77;;;;;;;;;;21156564;28;20054;-86
2022/04/24 20:16:44;;;;;;;2.03;1.60;;;;;;;;;;21117950;28;20060;-89
2022/04/24 20:26:46;;;;;;;4.28;2.03;;;;;;;;;;21067357;28;20039;-90
2022/04/24 20:36:50;;;;;;;2.70;1.77;;;;;;;;;;21093001;28;20055;-89
2022/04/24 20:46:53;;;;;;;2.03;1.70;;;;;;;;;;21125827;28;20044;-89
2022/04/24 20:56:55;;;;;;;2.70;1.80;;;;;;;;;;21128777;28;20416;-92
2022/04/24 21:06:57;;;;;;;2.95;1.75;;;;;;;;;;21127246;27;20079;-90
2022/04/24 21:16:59;;;;;;;2.97;1.63;;;;;;;;;;21100462;28;20151;-89
2022/04/24 21:27:01;;;;;;;2.08;1.67;;;;;;;;;;21175683;28;20039;-89
2022/04/24 21:37:03;;;;;;;2.28;1.50;;;;;;;;;;21119986;27;20142;-88
2022/04/24 21:47:05;;;;;;;1.92;1.67;;;;;;;;;;21135982;28;20039;-86
2022/04/24 21:57:07;;;;;;;2.47;1.77;;;;;;;;;;21127953;28;20040;-84
2022/04/24 22:07:09;;;;;;;2.72;1.77;;;;;;;;;;21107862;28;20087;-86
2022/04/24 22:17:11;;;;;;;2.03;1.50;;;;;;;;;;21145073;28;20047;-85
2022/04/24 22:27:14;;;;;;;2.88;2.00;;;;;;;;;;21116542;28;20047;-88
2022/04/24 22:37:16;;;;;;;2.35;1.80;;;;;;;;;;21121120;28;20081;-89
2022/04/24 22:47:18;;;;;;;2.40;1.73;;;;;;;;;;21083738;28;20401;-87
2022/04/24 22:57:20;;;;;;;2.20;1.70;;;;;;;;;;21084671;28;20079;-91
2022/04/24 23:07:21;;;;;;;2.15;1.55;;;;;;;;;;21060466;28;20047;-88
2022/04/24 23:17:23;;;;;;;1.95;1.52;;;;;;;;;;21099333;28;20077;-90
2022/04/24 23:27:25;;;;;;;3.17;1.85;;;;;;;;;;21093983;28;20044;-89
2022/04/24 23:37:28;;;;;;;2.33;1.80;;;;;;;;;;21091558;28;20038;-86
2022/04/24 23:47:30;;;;;;;3.03;2.05;;;;;;;;;;21085714;28;20393;-89
2022/04/24 23:57:32;;;;;;;3.15;2.25;;;;;;;;;;21108018;28;20078;-90
